Cox's Bazar, Bangladesh

9:06 AM BDT on August 31, 2014 (GMT +0600)
M.A. Hannan International | Change Station
CLOSE
Current Station
Airport
Location: Chittagong,
Elevation: 13 ft
Nearby Weather Stations

Elev 13 ft 22.27 °N, 91.82 °E | Updated 16 minutes ago

Overcast
Overcast
82 °F
Feels Like 91 °F
N
9
Wind Variable Wind from ESE

Today
High -- | Low -- °F
--% Chance of Precip.
Yesterday
High -- | Low -- °F
Precip. -- in
5:35 AM 6:09 PM
Waxing Crescent, 27% visible
Pressure 29.65 in
Visibility 3.7 miles
Clouds Scattered Clouds 1600 ft
Few 3000 ft
Overcast 10000 ft
Heat Index 91 °F
Dew Point 77 °F
Humidity 84%
Rainfall 0.00 in
Snow Depth Not available.
UV 3 out of 12
Pollen Not available.
Air Quality Not available.
Flu Activity Not available.
METAR VGEG 310250Z 12008KT 6000 SCT016 FEW030CB OVC100 28/25 Q1004 TEMPO TSRA

More Conditions Fewer Conditions

Pressure 29.65 in
Visibility 3.7 miles
Clouds Scattered Clouds 1600 ft
Few 3000 ft
Overcast 10000 ft
Heat Index 91 °F
Dew Point 77 °F
Humidity 84%
Rainfall 0.00 in
Snow Depth Not available.
UV 3 out of 12
Pollen Not available.
Air Quality Not available.
Flu Activity Not available.
METAR VGEG 310250Z 12008KT 6000 SCT016 FEW030CB OVC100 28/25 Q1004 TEMPO TSRA

More Conditions Fewer Conditions

10-Day Weather Forecast

Almanac

Astronomy

Aug. 31, 2014 Rise Set
Actual Time 5:35 AM BDT 6:09 PM BDT
Civil Twilight 5:12 AM BDT 6:32 PM BDT
Nautical Twilight 4:46 AM BDT 6:58 PM BDT
Astronomical Twilight 4:19 AM BDT 7:25 PM BDT
Moon 10:09 AM BDT 9:47 PM BDT
Length of Visible Light 13h 19m
Length of Day
12h 34m
Tomorrow will be 1m 10s shorter.
Waxing Crescent, 27% of the Moon is Illuminated
Aug 30
Waxing Crescent
Sep 2
First Quarter
Sep 8
Full
Sep 15
Last Quarter
Sep 24
New

Yesterday's Extremes

Country Highs Country Lows

Community

WunderPhotos

Upload Photos

1,748,754 photos uploaded!

Nearby

Snow Depth

Not available.

Earthquake Activity

City Distance Mag. Time & Date
No recent earthquake activity has been reported nearby.
Minimum magnitude displayed is 2.5.

Coastal Water Temperatures

Place Temperature
No Stations Reporting

Nearby Weather Stations